sensor_id;sensor_type;location;lat;lon;timestamp;P1;durP1;ratioP1;P2;durP2;ratioP2
32228;SDS011;18717;48.034;11.186;2023-04-24T00:02:06;8.57;;;8.18;;
32228;SDS011;18717;48.034;11.186;2023-04-24T00:04:37;9.98;;;9.32;;
32228;SDS011;18717;48.034;11.186;2023-04-24T00:07:06;9.80;;;9.30;;
32228;SDS011;18717;48.034;11.186;2023-04-24T00:09:35;9.13;;;8.70;;
32228;SDS011;18717;48.034;11.186;2023-04-24T00:12:02;10.30;;;9.60;;
32228;SDS011;18717;48.034;11.186;2023-04-24T00:14:30;8.85;;;8.25;;
32228;SDS011;18717;48.034;11.186;2023-04-24T00:16:59;8.77;;;8.48;;
32228;SDS011;18717;48.034;11.186;2023-04-24T00:19:28;8.68;;;8.27;;
32228;SDS011;18717;48.034;11.186;2023-04-24T00:21:56;8.57;;;8.18;;
32228;SDS011;18717;48.034;11.186;2023-04-24T00:24:24;9.15;;;8.65;;
32228;SDS011;18717;48.034;11.186;2023-04-24T00:26:51;8.25;;;7.85;;
32228;SDS011;18717;48.034;11.186;2023-04-24T00:29:19;8.32;;;7.85;;
32228;SDS011;18717;48.034;11.186;2023-04-24T00:31:47;8.52;;;8.10;;
32228;SDS011;18717;48.034;11.186;2023-04-24T00:34:16;8.93;;;8.52;;
32228;SDS011;18717;48.034;11.186;2023-04-24T00:36:44;8.70;;;8.40;;
32228;SDS011;18717;48.034;11.186;2023-04-24T00:39:12;8.63;;;8.02;;
32228;SDS011;18717;48.034;11.186;2023-04-24T00:41:40;8.48;;;8.07;;
32228;SDS011;18717;48.034;11.186;2023-04-24T00:44:07;8.48;;;7.97;;
32228;SDS011;18717;48.034;11.186;2023-04-24T00:46:35;8.23;;;7.82;;
32228;SDS011;18717;48.034;11.186;2023-04-24T00:49:03;8.43;;;7.90;;
32228;SDS011;18717;48.034;11.186;2023-04-24T00:51:33;7.72;;;7.43;;
32228;SDS011;18717;48.034;11.186;2023-04-24T00:54:01;7.95;;;7.55;;
32228;SDS011;18717;48.034;11.186;2023-04-24T00:56:28;9.13;;;8.63;;
32228;SDS011;18717;48.034;11.186;2023-04-24T00:58:56;8.10;;;7.78;;
32228;SDS011;18717;48.034;11.186;2023-04-24T01:01:25;8.57;;;8.05;;
32228;SDS011;18717;48.034;11.186;2023-04-24T01:03:52;7.72;;;7.43;;
32228;SDS011;18717;48.034;11.186;2023-04-24T01:06:21;8.35;;;8.05;;
32228;SDS011;18717;48.034;11.186;2023-04-24T01:08:51;7.93;;;7.63;;
32228;SDS011;18717;48.034;11.186;2023-04-24T01:11:18;8.18;;;7.72;;
32228;SDS011;18717;48.034;11.186;2023-04-24T01:13:47;8.43;;;8.02;;
32228;SDS011;18717;48.034;11.186;2023-04-24T01:16:14;8.20;;;7.90;;
32228;SDS011;18717;48.034;11.186;2023-04-24T01:18:43;7.85;;;7.55;;
32228;SDS011;18717;48.034;11.186;2023-04-24T01:21:12;8.73;;;8.32;;
32228;SDS011;18717;48.034;11.186;2023-04-24T01:23:42;7.90;;;7.50;;
32228;SDS011;18717;48.034;11.186;2023-04-24T01:26:10;7.82;;;7.50;;
32228;SDS011;18717;48.034;11.186;2023-04-24T01:28:38;8.32;;;7.93;;
32228;SDS011;18717;48.034;11.186;2023-04-24T01:31:06;8.15;;;7.75;;
32228;SDS011;18717;48.034;11.186;2023-04-24T01:33:34;8.80;;;8.23;;
32228;SDS011;18717;48.034;11.186;2023-04-24T01:36:02;8.73;;;8.25;;
32228;SDS011;18717;48.034;11.186;2023-04-24T01:38:30;8.40;;;7.95;;
32228;SDS011;18717;48.034;11.186;2023-04-24T01:40:59;9.05;;;8.27;;
32228;SDS011;18717;48.034;11.186;2023-04-24T01:43:26;8.13;;;7.82;;
32228;SDS011;18717;48.034;11.186;2023-04-24T01:45:54;8.05;;;7.75;;
32228;SDS011;18717;48.034;11.186;2023-04-24T01:48:22;7.80;;;7.50;;
32228;SDS011;18717;48.034;11.186;2023-04-24T01:50:49;8.27;;;7.88;;
32228;SDS011;18717;48.034;11.186;2023-04-24T01:53:17;8.80;;;8.50;;
32228;SDS011;18717;48.034;11.186;2023-04-24T01:55:45;7.57;;;7.28;;
32228;SDS011;18717;48.034;11.186;2023-04-24T01:58:14;8.65;;;8.18;;
32228;SDS011;18717;48.034;11.186;2023-04-24T02:00:42;8.30;;;8.00;;
32228;SDS011;18717;48.034;11.186;2023-04-24T02:03:09;8.27;;;7.97;;
32228;SDS011;18717;48.034;11.186;2023-04-24T02:05:37;9.07;;;8.48;;
32228;SDS011;18717;48.034;11.186;2023-04-24T02:08:05;8.77;;;8.38;;
32228;SDS011;18717;48.034;11.186;2023-04-24T02:10:33;7.75;;;7.45;;
32228;SDS011;18717;48.034;11.186;2023-04-24T02:13:00;8.43;;;8.13;;
32228;SDS011;18717;48.034;11.186;2023-04-24T02:15:29;8.23;;;7.70;;
32228;SDS011;18717;48.034;11.186;2023-04-24T02:17:57;8.88;;;8.38;;
32228;SDS011;18717;48.034;11.186;2023-04-24T02:20:25;7.70;;;7.40;;
32228;SDS011;18717;48.034;11.186;2023-04-24T02:22:53;7.90;;;7.60;;
32228;SDS011;18717;48.034;11.186;2023-04-24T02:25:21;7.70;;;7.40;;
32228;SDS011;18717;48.034;11.186;2023-04-24T02:27:49;8.23;;;7.93;;
32228;SDS011;18717;48.034;11.186;2023-04-24T02:30:16;8.30;;;8.00;;
32228;SDS011;18717;48.034;11.186;2023-04-24T02:32:45;7.70;;;7.40;;
32228;SDS011;18717;48.034;11.186;2023-04-24T02:35:13;7.78;;;7.47;;
32228;SDS011;18717;48.034;11.186;2023-04-24T02:37:41;8.25;;;7.95;;
32228;SDS011;18717;48.034;11.186;2023-04-24T02:40:09;8.18;;;7.88;;
32228;SDS011;18717;48.034;11.186;2023-04-24T02:42:37;8.18;;;7.82;;
32228;SDS011;18717;48.034;11.186;2023-04-24T02:45:05;8.02;;;7.63;;
32228;SDS011;18717;48.034;11.186;2023-04-24T02:47:33;9.02;;;8.63;;
32228;SDS011;18717;48.034;11.186;2023-04-24T02:50:02;8.43;;;8.13;;
32228;SDS011;18717;48.034;11.186;2023-04-24T02:52:31;8.15;;;7.78;;
32228;SDS011;18717;48.034;11.186;2023-04-24T02:54:58;8.05;;;7.50;;
32228;SDS011;18717;48.034;11.186;2023-04-24T02:57:26;7.93;;;7.63;;
32228;SDS011;18717;48.034;11.186;2023-04-24T02:59:53;8.18;;;7.75;;
32228;SDS011;18717;48.034;11.186;2023-04-24T03:02:21;8.50;;;7.90;;
32228;SDS011;18717;48.034;11.186;2023-04-24T03:04:49;9.07;;;8.30;;
32228;SDS011;18717;48.034;11.186;2023-04-24T03:07:18;7.68;;;7.38;;
32228;SDS011;18717;48.034;11.186;2023-04-24T03:09:47;7.97;;;7.60;;
32228;SDS011;18717;48.034;11.186;2023-04-24T03:12:14;8.32;;;7.82;;
32228;SDS011;18717;48.034;11.186;2023-04-24T03:14:43;8.18;;;7.85;;
32228;SDS011;18717;48.034;11.186;2023-04-24T03:17:11;8.43;;;8.02;;
32228;SDS011;18717;48.034;11.186;2023-04-24T03:19:39;8.45;;;8.13;;
32228;SDS011;18717;48.034;11.186;2023-04-24T03:22:07;8.40;;;8.10;;
32228;SDS011;18717;48.034;11.186;2023-04-24T03:24:36;7.63;;;7.32;;
32228;SDS011;18717;48.034;11.186;2023-04-24T03:27:04;8.15;;;7.70;;
32228;SDS011;18717;48.034;11.186;2023-04-24T03:29:32;8.52;;;8.20;;
32228;SDS011;18717;48.034;11.186;2023-04-24T03:31:59;8.38;;;8.07;;
32228;SDS011;18717;48.034;11.186;2023-04-24T03:34:27;8.18;;;7.78;;
32228;SDS011;18717;48.034;11.186;2023-04-24T03:36:55;8.27;;;7.70;;
32228;SDS011;18717;48.034;11.186;2023-04-24T03:39:23;8.07;;;7.68;;
32228;SDS011;18717;48.034;11.186;2023-04-24T03:41:52;7.80;;;7.43;;
32228;SDS011;18717;48.034;11.186;2023-04-24T03:44:20;7.63;;;7.32;;
32228;SDS011;18717;48.034;11.186;2023-04-24T03:46:48;7.57;;;7.28;;
32228;SDS011;18717;48.034;11.186;2023-04-24T03:49:15;8.57;;;8.07;;
32228;SDS011;18717;48.034;11.186;2023-04-24T03:51:43;8.52;;;8.15;;
32228;SDS011;18717;48.034;11.186;2023-04-24T03:54:11;7.78;;;7.47;;
32228;SDS011;18717;48.034;11.186;2023-04-24T03:56:39;8.27;;;7.88;;
32228;SDS011;18717;48.034;11.186;2023-04-24T03:59:08;8.05;;;7.75;;
32228;SDS011;18717;48.034;11.186;2023-04-24T04:01:36;7.78;;;7.47;;
32228;SDS011;18717;48.034;11.186;2023-04-24T04:04:08;8.63;;;8.10;;
32228;SDS011;18717;48.034;11.186;2023-04-24T04:06:36;7.57;;;7.28;;
32228;SDS011;18717;48.034;11.186;2023-04-24T04:09:04;7.85;;;7.55;;
32228;SDS011;18717;48.034;11.186;2023-04-24T04:11:31;8.20;;;7.90;;
32228;SDS011;18717;48.034;11.186;2023-04-24T04:13:59;7.80;;;7.50;;
32228;SDS011;18717;48.034;11.186;2023-04-24T04:16:28;7.97;;;7.63;;
32228;SDS011;18717;48.034;11.186;2023-04-24T04:18:56;7.78;;;7.47;;
32228;SDS011;18717;48.034;11.186;2023-04-24T04:21:23;8.75;;;8.35;;
32228;SDS011;18717;48.034;11.186;2023-04-24T04:23:52;8.18;;;7.68;;
32228;SDS011;18717;48.034;11.186;2023-04-24T04:26:20;7.93;;;7.60;;
32228;SDS011;18717;48.034;11.186;2023-04-24T04:28:51;8.53;;;8.07;;
32228;SDS011;18717;48.034;11.186;2023-04-24T04:31:19;7.80;;;7.30;;
32228;SDS011;18717;48.034;11.186;2023-04-24T04:33:48;7.88;;;7.47;;
32228;SDS011;18717;48.034;11.186;2023-04-24T04:36:16;8.05;;;7.75;;
32228;SDS011;18717;48.034;11.186;2023-04-24T04:38:44;7.70;;;7.40;;
32228;SDS011;18717;48.034;11.186;2023-04-24T04:41:12;8.20;;;7.80;;
32228;SDS011;18717;48.034;11.186;2023-04-24T04:43:40;9.13;;;8.45;;
32228;SDS011;18717;48.034;11.186;2023-04-24T04:46:08;9.10;;;8.70;;
32228;SDS011;18717;48.034;11.186;2023-04-24T04:48:37;8.48;;;8.18;;
32228;SDS011;18717;48.034;11.186;2023-04-24T04:51:07;7.82;;;7.50;;
32228;SDS011;18717;48.034;11.186;2023-04-24T04:53:34;9.00;;;8.60;;
32228;SDS011;18717;48.034;11.186;2023-04-24T04:56:02;8.45;;;8.07;;
32228;SDS011;18717;48.034;11.186;2023-04-24T04:58:30;7.40;;;7.10;;
32228;SDS011;18717;48.034;11.186;2023-04-24T05:00:57;7.70;;;7.40;;
32228;SDS011;18717;48.034;11.186;2023-04-24T05:03:25;8.15;;;7.80;;
32228;SDS011;18717;48.034;11.186;2023-04-24T05:05:53;8.20;;;7.90;;
32228;SDS011;18717;48.034;11.186;2023-04-24T05:08:22;7.93;;;7.63;;
32228;SDS011;18717;48.034;11.186;2023-04-24T05:10:53;8.05;;;7.75;;
32228;SDS011;18717;48.034;11.186;2023-04-24T05:13:21;8.02;;;7.45;;
32228;SDS011;18717;48.034;11.186;2023-04-24T05:16:04;8.52;;;8.02;;
32228;SDS011;18717;48.034;11.186;2023-04-24T05:18:32;9.70;;;9.02;;
32228;SDS011;18717;48.034;11.186;2023-04-24T05:21:00;8.10;;;7.72;;
32228;SDS011;18717;48.034;11.186;2023-04-24T05:23:29;7.85;;;7.55;;
32228;SDS011;18717;48.034;11.186;2023-04-24T05:25:57;8.40;;;8.00;;
32228;SDS011;18717;48.034;11.186;2023-04-24T05:28:25;8.35;;;8.05;;
32228;SDS011;18717;48.034;11.186;2023-04-24T05:30:54;7.90;;;7.60;;
32228;SDS011;18717;48.034;11.186;2023-04-24T05:33:23;7.65;;;7.35;;
32228;SDS011;18717;48.034;11.186;2023-04-24T05:35:50;7.70;;;7.40;;
32228;SDS011;18717;48.034;11.186;2023-04-24T05:38:18;7.90;;;7.60;;
32228;SDS011;18717;48.034;11.186;2023-04-24T05:40:47;7.85;;;7.45;;
32228;SDS011;18717;48.034;11.186;2023-04-24T05:43:15;7.95;;;7.45;;
32228;SDS011;18717;48.034;11.186;2023-04-24T05:45:43;8.10;;;7.70;;
32228;SDS011;18717;48.034;11.186;2023-04-24T05:48:10;8.80;;;8.30;;
32228;SDS011;18717;48.034;11.186;2023-04-24T05:50:38;9.20;;;8.60;;
32228;SDS011;18717;48.034;11.186;2023-04-24T05:53:06;10.68;;;9.75;;
32228;SDS011;18717;48.034;11.186;2023-04-24T05:55:34;8.95;;;8.32;;
32228;SDS011;18717;48.034;11.186;2023-04-24T05:58:03;8.10;;;7.68;;
32228;SDS011;18717;48.034;11.186;2023-04-24T06:00:31;8.30;;;7.90;;
32228;SDS011;18717;48.034;11.186;2023-04-24T06:02:59;7.88;;;7.57;;
32228;SDS011;18717;48.034;11.186;2023-04-24T06:05:27;8.23;;;7.93;;
32228;SDS011;18717;48.034;11.186;2023-04-24T06:07:55;7.43;;;7.13;;
32228;SDS011;18717;48.034;11.186;2023-04-24T06:10:22;7.80;;;7.50;;
32228;SDS011;18717;48.034;11.186;2023-04-24T06:12:50;7.78;;;7.47;;
32228;SDS011;18717;48.034;11.186;2023-04-24T06:15:19;7.88;;;7.57;;
32228;SDS011;18717;48.034;11.186;2023-04-24T06:17:47;7.65;;;7.25;;
32228;SDS011;18717;48.034;11.186;2023-04-24T06:20:15;7.85;;;7.35;;
32228;SDS011;18717;48.034;11.186;2023-04-24T06:22:42;7.78;;;7.47;;
32228;SDS011;18717;48.034;11.186;2023-04-24T06:25:10;8.38;;;7.88;;
32228;SDS011;18717;48.034;11.186;2023-04-24T06:27:38;8.32;;;7.97;;
32228;SDS011;18717;48.034;11.186;2023-04-24T06:30:07;8.40;;;8.10;;
32228;SDS011;18717;48.034;11.186;2023-04-24T06:32:37;7.97;;;7.68;;
32228;SDS011;18717;48.034;11.186;2023-04-24T06:35:05;7.95;;;7.55;;
32228;SDS011;18717;48.034;11.186;2023-04-24T06:37:34;8.40;;;8.10;;
32228;SDS011;18717;48.034;11.186;2023-04-24T06:40:02;8.15;;;7.85;;
32228;SDS011;18717;48.034;11.186;2023-04-24T06:42:32;8.20;;;7.75;;
32228;SDS011;18717;48.034;11.186;2023-04-24T06:45:01;8.10;;;7.75;;
32228;SDS011;18717;48.034;11.186;2023-04-24T06:47:29;8.02;;;7.70;;
32228;SDS011;18717;48.034;11.186;2023-04-24T06:49:58;7.70;;;7.40;;
32228;SDS011;18717;48.034;11.186;2023-04-24T06:52:26;7.50;;;7.20;;
32228;SDS011;18717;48.034;11.186;2023-04-24T06:54:59;7.88;;;7.57;;
32228;SDS011;18717;48.034;11.186;2023-04-24T06:57:27;9.30;;;8.90;;
32228;SDS011;18717;48.034;11.186;2023-04-24T06:59:55;8.77;;;8.38;;
32228;SDS011;18717;48.034;11.186;2023-04-24T07:02:22;7.70;;;7.40;;
32228;SDS011;18717;48.034;11.186;2023-04-24T07:04:50;7.80;;;7.50;;
32228;SDS011;18717;48.034;11.186;2023-04-24T07:07:20;7.75;;;7.45;;
32228;SDS011;18717;48.034;11.186;2023-04-24T07:09:50;7.85;;;7.55;;
32228;SDS011;18717;48.034;11.186;2023-04-24T07:12:18;8.02;;;7.72;;
32228;SDS011;18717;48.034;11.186;2023-04-24T07:14:47;8.30;;;8.00;;
32228;SDS011;18717;48.034;11.186;2023-04-24T07:17:15;8.48;;;8.18;;
32228;SDS011;18717;48.034;11.186;2023-04-24T07:19:42;8.10;;;7.80;;
32228;SDS011;18717;48.034;11.186;2023-04-24T07:22:10;8.55;;;8.15;;
32228;SDS011;18717;48.034;11.186;2023-04-24T07:24:44;8.32;;;7.93;;
32228;SDS011;18717;48.034;11.186;2023-04-24T07:27:12;7.85;;;7.38;;
32228;SDS011;18717;48.034;11.186;2023-04-24T07:29:41;8.55;;;8.15;;
32228;SDS011;18717;48.034;11.186;2023-04-24T07:32:10;8.18;;;7.88;;
32228;SDS011;18717;48.034;11.186;2023-04-24T07:34:38;8.00;;;7.70;;
32228;SDS011;18717;48.034;11.186;2023-04-24T07:37:06;8.15;;;7.85;;
32228;SDS011;18717;48.034;11.186;2023-04-24T07:39:33;8.75;;;8.35;;
32228;SDS011;18717;48.034;11.186;2023-04-24T07:42:02;7.90;;;7.60;;
32228;SDS011;18717;48.034;11.186;2023-04-24T07:44:30;8.32;;;8.02;;
32228;SDS011;18717;48.034;11.186;2023-04-24T07:46:58;8.10;;;7.80;;
32228;SDS011;18717;48.034;11.186;2023-04-24T07:49:26;7.80;;;7.50;;
32228;SDS011;18717;48.034;11.186;2023-04-24T07:51:54;7.82;;;7.53;;
32228;SDS011;18717;48.034;11.186;2023-04-24T07:54:21;8.30;;;7.93;;
32228;SDS011;18717;48.034;11.186;2023-04-24T07:56:49;8.07;;;7.68;;
32228;SDS011;18717;48.034;11.186;2023-04-24T07:59:18;7.90;;;7.60;;
32228;SDS011;18717;48.034;11.186;2023-04-24T08:01:46;8.13;;;7.72;;
32228;SDS011;18717;48.034;11.186;2023-04-24T08:04:14;8.57;;;7.97;;
32228;SDS011;18717;48.034;11.186;2023-04-24T08:06:42;8.07;;;7.72;;
32228;SDS011;18717;48.034;11.186;2023-04-24T08:09:09;7.88;;;7.57;;
32228;SDS011;18717;48.034;11.186;2023-04-24T08:11:37;7.93;;;7.63;;
32228;SDS011;18717;48.034;11.186;2023-04-24T08:14:05;8.30;;;7.90;;
32228;SDS011;18717;48.034;11.186;2023-04-24T08:19:03;10.13;;;7.93;;
32228;SDS011;18717;48.034;11.186;2023-04-24T08:21:31;8.60;;;8.20;;
32228;SDS011;18717;48.034;11.186;2023-04-24T08:23:59;8.43;;;8.02;;
32228;SDS011;18717;48.034;11.186;2023-04-24T08:26:31;8.18;;;7.72;;
32228;SDS011;18717;48.034;11.186;2023-04-24T08:28:58;8.63;;;7.88;;
32228;SDS011;18717;48.034;11.186;2023-04-24T08:31:27;8.43;;;8.02;;
32228;SDS011;18717;48.034;11.186;2023-04-24T08:33:56;8.10;;;7.70;;
32228;SDS011;18717;48.034;11.186;2023-04-24T08:36:23;7.78;;;7.38;;
32228;SDS011;18717;48.034;11.186;2023-04-24T08:39:09;7.85;;;7.55;;
32228;SDS011;18717;48.034;11.186;2023-04-24T08:41:36;8.27;;;7.93;;
32228;SDS011;18717;48.034;11.186;2023-04-24T08:44:05;8.15;;;7.85;;
32228;SDS011;18717;48.034;11.186;2023-04-24T08:46:35;8.43;;;8.02;;
32228;SDS011;18717;48.034;11.186;2023-04-24T08:49:05;8.80;;;8.38;;
32228;SDS011;18717;48.034;11.186;2023-04-24T08:51:33;8.02;;;7.63;;
32228;SDS011;18717;48.034;11.186;2023-04-24T08:54:01;8.50;;;8.10;;
32228;SDS011;18717;48.034;11.186;2023-04-24T08:56:30;8.70;;;8.30;;
32228;SDS011;18717;48.034;11.186;2023-04-24T08:58:59;8.48;;;8.02;;
32228;SDS011;18717;48.034;11.186;2023-04-24T09:01:26;8.55;;;8.15;;
32228;SDS011;18717;48.034;11.186;2023-04-24T09:03:55;8.30;;;7.80;;
32228;SDS011;18717;48.034;11.186;2023-04-24T09:06:25;8.88;;;8.38;;
32228;SDS011;18717;48.034;11.186;2023-04-24T09:08:54;9.02;;;8.63;;
32228;SDS011;18717;48.034;11.186;2023-04-24T09:11:22;8.15;;;7.65;;
32228;SDS011;18717;48.034;11.186;2023-04-24T09:13:51;9.13;;;8.50;;
32228;SDS011;18717;48.034;11.186;2023-04-24T09:16:19;8.50;;;8.10;;
32228;SDS011;18717;48.034;11.186;2023-04-24T09:18:50;8.82;;;8.43;;
32228;SDS011;18717;48.034;11.186;2023-04-24T09:21:26;9.25;;;8.45;;
32228;SDS011;18717;48.034;11.186;2023-04-24T09:23:59;9.45;;;8.88;;
32228;SDS011;18717;48.034;11.186;2023-04-24T09:26:29;9.38;;;8.75;;
32228;SDS011;18717;48.034;11.186;2023-04-24T09:28:59;8.75;;;8.35;;
32228;SDS011;18717;48.034;11.186;2023-04-24T09:31:27;9.32;;;8.98;;
32228;SDS011;18717;48.034;11.186;2023-04-24T09:33:56;9.50;;;9.00;;
32228;SDS011;18717;48.034;11.186;2023-04-24T09:36:29;9.77;;;9.15;;
32228;SDS011;18717;48.034;11.186;2023-04-24T09:38:59;8.98;;;8.48;;
32228;SDS011;18717;48.034;11.186;2023-04-24T09:41:28;9.68;;;9.25;;
32228;SDS011;18717;48.034;11.186;2023-04-24T09:43:57;9.18;;;8.65;;
32228;SDS011;18717;48.034;11.186;2023-04-24T09:46:38;10.00;;;9.57;;
32228;SDS011;18717;48.034;11.186;2023-04-24T09:49:07;10.02;;;9.43;;
32228;SDS011;18717;48.034;11.186;2023-04-24T09:51:38;10.48;;;9.82;;
32228;SDS011;18717;48.034;11.186;2023-04-24T09:54:11;9.52;;;9.13;;
32228;SDS011;18717;48.034;11.186;2023-04-24T09:56:42;10.50;;;9.80;;
32228;SDS011;18717;48.034;11.186;2023-04-24T09:59:11;9.73;;;9.23;;
32228;SDS011;18717;48.034;11.186;2023-04-24T10:01:39;10.88;;;10.10;;
32228;SDS011;18717;48.034;11.186;2023-04-24T10:04:17;10.17;;;9.77;;
32228;SDS011;18717;48.034;11.186;2023-04-24T10:06:47;10.15;;;9.65;;
32228;SDS011;18717;48.034;11.186;2023-04-24T10:09:16;9.75;;;9.23;;
32228;SDS011;18717;48.034;11.186;2023-04-24T10:11:45;9.65;;;9.25;;
32228;SDS011;18717;48.034;11.186;2023-04-24T10:14:15;9.98;;;9.35;;
32228;SDS011;18717;48.034;11.186;2023-04-24T10:16:44;9.68;;;9.18;;
32228;SDS011;18717;48.034;11.186;2023-04-24T10:19:13;9.70;;;9.27;;
32228;SDS011;18717;48.034;11.186;2023-04-24T10:21:42;10.00;;;9.40;;
32228;SDS011;18717;48.034;11.186;2023-04-24T10:24:14;9.95;;;9.48;;
32228;SDS011;18717;48.034;11.186;2023-04-24T10:26:43;9.43;;;9.02;;
32228;SDS011;18717;48.034;11.186;2023-04-24T10:29:12;8.90;;;8.60;;
32228;SDS011;18717;48.034;11.186;2023-04-24T10:31:42;9.07;;;8.77;;
32228;SDS011;18717;48.034;11.186;2023-04-24T10:34:12;8.80;;;8.30;;
32228;SDS011;18717;48.034;11.186;2023-04-24T10:36:41;9.25;;;8.85;;
32228;SDS011;18717;48.034;11.186;2023-04-24T10:39:11;8.50;;;8.20;;
32228;SDS011;18717;48.034;11.186;2023-04-24T10:41:42;9.18;;;8.77;;
32228;SDS011;18717;48.034;11.186;2023-04-24T10:44:11;8.82;;;8.43;;
32228;SDS011;18717;48.034;11.186;2023-04-24T10:46:43;8.35;;;8.05;;
32228;SDS011;18717;48.034;11.186;2023-04-24T10:49:11;6.50;;;6.20;;
32228;SDS011;18717;48.034;11.186;2023-04-24T10:51:46;8.80;;;8.40;;
32228;SDS011;18717;48.034;11.186;2023-04-24T10:54:24;9.18;;;8.77;;
32228;SDS011;18717;48.034;11.186;2023-04-24T10:56:55;9.02;;;8.63;;
32228;SDS011;18717;48.034;11.186;2023-04-24T11:00:13;9.23;;;8.82;;
32228;SDS011;18717;48.034;11.186;2023-04-24T11:02:42;9.38;;;8.77;;
32228;SDS011;18717;48.034;11.186;2023-04-24T11:05:15;10.48;;;9.70;;
32228;SDS011;18717;48.034;11.186;2023-04-24T11:10:40;9.90;;;9.50;;
32228;SDS011;18717;48.034;11.186;2023-04-24T11:13:10;10.32;;;9.82;;
32228;SDS011;18717;48.034;11.186;2023-04-24T11:15:38;10.38;;;9.77;;
32228;SDS011;18717;48.034;11.186;2023-04-24T11:18:12;10.27;;;9.60;;
32228;SDS011;18717;48.034;11.186;2023-04-24T11:23:09;9.20;;;8.80;;
32228;SDS011;18717;48.034;11.186;2023-04-24T11:25:39;10.10;;;9.50;;
32228;SDS011;18717;48.034;11.186;2023-04-24T11:28:10;11.40;;;10.80;;
32228;SDS011;18717;48.034;11.186;2023-04-24T11:30:42;10.20;;;9.57;;
32228;SDS011;18717;48.034;11.186;2023-04-24T11:33:10;9.93;;;9.38;;
32228;SDS011;18717;48.034;11.186;2023-04-24T11:35:39;10.32;;;9.70;;
32228;SDS011;18717;48.034;11.186;2023-04-24T11:38:07;10.65;;;9.90;;
32228;SDS011;18717;48.034;11.186;2023-04-24T11:43:18;10.77;;;10.18;;
32228;SDS011;18717;48.034;11.186;2023-04-24T11:45:47;10.52;;;9.93;;
32228;SDS011;18717;48.034;11.186;2023-04-24T11:48:18;11.07;;;10.40;;
32228;SDS011;18717;48.034;11.186;2023-04-24T11:50:48;10.55;;;9.85;;
32228;SDS011;18717;48.034;11.186;2023-04-24T11:53:18;12.43;;;10.32;;
32228;SDS011;18717;48.034;11.186;2023-04-24T11:55:46;11.25;;;10.45;;
32228;SDS011;18717;48.034;11.186;2023-04-24T11:58:14;10.73;;;10.02;;
32228;SDS011;18717;48.034;11.186;2023-04-24T12:00:43;10.05;;;9.57;;
32228;SDS011;18717;48.034;11.186;2023-04-24T12:03:12;9.93;;;9.43;;
32228;SDS011;18717;48.034;11.186;2023-04-24T12:05:40;9.98;;;9.48;;
32228;SDS011;18717;48.034;11.186;2023-04-24T12:08:08;10.35;;;9.70;;
32228;SDS011;18717;48.034;11.186;2023-04-24T12:10:36;10.77;;;10.00;;
32228;SDS011;18717;48.034;11.186;2023-04-24T12:13:03;10.00;;;9.40;;
32228;SDS011;18717;48.034;11.186;2023-04-24T12:15:31;9.90;;;9.40;;
32228;SDS011;18717;48.034;11.186;2023-04-24T12:18:01;10.02;;;9.52;;
32228;SDS011;18717;48.034;11.186;2023-04-24T12:20:29;10.52;;;9.98;;
32228;SDS011;18717;48.034;11.186;2023-04-24T12:22:58;10.63;;;9.90;;
32228;SDS011;18717;48.034;11.186;2023-04-24T12:25:27;9.85;;;9.25;;
32228;SDS011;18717;48.034;11.186;2023-04-24T12:28:08;10.30;;;9.80;;
32228;SDS011;18717;48.034;11.186;2023-04-24T12:30:39;11.10;;;10.30;;
32228;SDS011;18717;48.034;11.186;2023-04-24T12:33:09;10.65;;;10.15;;
32228;SDS011;18717;48.034;11.186;2023-04-24T12:35:37;11.18;;;10.48;;
32228;SDS011;18717;48.034;11.186;2023-04-24T12:38:07;10.27;;;9.77;;
32228;SDS011;18717;48.034;11.186;2023-04-24T12:40:36;10.30;;;9.80;;
32228;SDS011;18717;48.034;11.186;2023-04-24T12:43:12;9.68;;;9.23;;
32228;SDS011;18717;48.034;11.186;2023-04-24T12:45:41;9.80;;;9.18;;
32228;SDS011;18717;48.034;11.186;2023-04-24T12:48:10;10.50;;;9.57;;
32228;SDS011;18717;48.034;11.186;2023-04-24T12:50:38;10.30;;;9.80;;
32228;SDS011;18717;48.034;11.186;2023-04-24T12:53:07;10.32;;;9.68;;
32228;SDS011;18717;48.034;11.186;2023-04-24T12:55:35;10.88;;;10.20;;
32228;SDS011;18717;48.034;11.186;2023-04-24T12:58:03;10.88;;;10.18;;
32228;SDS011;18717;48.034;11.186;2023-04-24T13:00:31;9.55;;;8.95;;
32228;SDS011;18717;48.034;11.186;2023-04-24T13:02:58;11.18;;;10.48;;
32228;SDS011;18717;48.034;11.186;2023-04-24T13:05:28;10.02;;;9.52;;
32228;SDS011;18717;48.034;11.186;2023-04-24T13:07:56;10.50;;;9.65;;
32228;SDS011;18717;48.034;11.186;2023-04-24T13:10:24;9.98;;;9.43;;
32228;SDS011;18717;48.034;11.186;2023-04-24T13:12:52;10.68;;;10.00;;
32228;SDS011;18717;48.034;11.186;2023-04-24T13:15:20;11.40;;;10.68;;
32228;SDS011;18717;48.034;11.186;2023-04-24T13:17:48;11.15;;;10.35;;
32228;SDS011;18717;48.034;11.186;2023-04-24T13:20:16;10.93;;;10.23;;
32228;SDS011;18717;48.034;11.186;2023-04-24T13:22:46;10.77;;;10.13;;
32228;SDS011;18717;48.034;11.186;2023-04-24T13:25:14;10.40;;;9.75;;
32228;SDS011;18717;48.034;11.186;2023-04-24T13:27:43;10.25;;;9.77;;
32228;SDS011;18717;48.034;11.186;2023-04-24T13:30:11;10.63;;;9.70;;
32228;SDS011;18717;48.034;11.186;2023-04-24T13:32:39;10.32;;;9.45;;
32228;SDS011;18717;48.034;11.186;2023-04-24T13:35:08;10.13;;;9.55;;
32228;SDS011;18717;48.034;11.186;2023-04-24T13:37:35;10.60;;;9.82;;
32228;SDS011;18717;48.034;11.186;2023-04-24T13:40:05;10.20;;;9.60;;
32228;SDS011;18717;48.034;11.186;2023-04-24T13:42:34;10.57;;;9.98;;
32228;SDS011;18717;48.034;11.186;2023-04-24T13:45:02;10.18;;;9.55;;
32228;SDS011;18717;48.034;11.186;2023-04-24T13:47:50;10.18;;;9.57;;
32228;SDS011;18717;48.034;11.186;2023-04-24T13:50:18;9.77;;;9.27;;
32228;SDS011;18717;48.034;11.186;2023-04-24T13:52:46;10.60;;;9.90;;
32228;SDS011;18717;48.034;11.186;2023-04-24T13:55:15;10.65;;;9.98;;
32228;SDS011;18717;48.034;11.186;2023-04-24T13:57:43;9.70;;;9.10;;
32228;SDS011;18717;48.034;11.186;2023-04-24T14:00:11;12.32;;;11.05;;
32228;SDS011;18717;48.034;11.186;2023-04-24T14:02:40;10.57;;;9.95;;
32228;SDS011;18717;48.034;11.186;2023-04-24T14:05:08;10.82;;;10.02;;
32228;SDS011;18717;48.034;11.186;2023-04-24T14:07:37;10.13;;;9.40;;
32228;SDS011;18717;48.034;11.186;2023-04-24T14:10:05;9.88;;;9.40;;
32228;SDS011;18717;48.034;11.186;2023-04-24T14:12:35;9.82;;;9.43;;
32228;SDS011;18717;48.034;11.186;2023-04-24T14:15:03;10.65;;;10.05;;
32228;SDS011;18717;48.034;11.186;2023-04-24T14:17:31;10.32;;;9.82;;
32228;SDS011;18717;48.034;11.186;2023-04-24T14:19:59;10.25;;;9.55;;
32228;SDS011;18717;48.034;11.186;2023-04-24T14:22:26;10.07;;;9.63;;
32228;SDS011;18717;48.034;11.186;2023-04-24T14:24:54;10.00;;;9.50;;
32228;SDS011;18717;48.034;11.186;2023-04-24T14:27:22;10.15;;;9.43;;
32228;SDS011;18717;48.034;11.186;2023-04-24T14:29:51;9.95;;;9.23;;
32228;SDS011;18717;48.034;11.186;2023-04-24T14:32:19;10.98;;;10.27;;
32228;SDS011;18717;48.034;11.186;2023-04-24T14:34:47;9.68;;;9.18;;
32228;SDS011;18717;48.034;11.186;2023-04-24T14:37:14;10.40;;;9.70;;
32228;SDS011;18717;48.034;11.186;2023-04-24T14:39:42;9.90;;;9.35;;
32228;SDS011;18717;48.034;11.186;2023-04-24T14:42:21;11.57;;;10.55;;
32228;SDS011;18717;48.034;11.186;2023-04-24T14:44:49;10.93;;;10.23;;
32228;SDS011;18717;48.034;11.186;2023-04-24T14:47:18;10.55;;;9.95;;
32228;SDS011;18717;48.034;11.186;2023-04-24T14:49:47;10.77;;;9.93;;
32228;SDS011;18717;48.034;11.186;2023-04-24T14:52:15;10.48;;;9.88;;